createdAt,value
2023-03-04T00:01:31.709Z,5.73
2023-03-04T00:03:58.782Z,5.73
2023-03-04T00:06:26.061Z,5.72
2023-03-04T00:08:53.214Z,5.72
2023-03-04T00:11:20.206Z,5.60
2023-03-04T00:13:47.658Z,5.53
2023-03-04T00:16:14.620Z,5.52
2023-03-04T00:18:41.647Z,5.63
2023-03-04T00:21:08.736Z,5.70
2023-03-04T00:23:35.953Z,5.74
2023-03-04T00:26:02.867Z,5.80
2023-03-04T00:28:29.812Z,5.72
2023-03-04T00:30:56.755Z,5.77
2023-03-04T00:33:23.750Z,5.68
2023-03-04T00:35:50.950Z,5.80
2023-03-04T00:38:17.842Z,5.90
2023-03-04T00:40:44.774Z,5.90
2023-03-04T00:43:11.751Z,5.74
2023-03-04T00:45:38.762Z,5.66
2023-03-04T00:48:05.841Z,5.71
2023-03-04T00:50:32.823Z,5.78
2023-03-04T00:53:00.015Z,5.79
2023-03-04T00:55:27.016Z,5.95
2023-03-04T00:57:54.098Z,5.95
2023-03-04T01:00:21.396Z,5.95
2023-03-04T01:02:48.614Z,6.04
2023-03-04T01:05:16.089Z,6.10
2023-03-04T01:07:43.268Z,6.17
2023-03-04T01:10:12.082Z,6.18
2023-03-04T01:12:41.625Z,6.22
2023-03-04T01:15:10.369Z,6.22
2023-03-04T01:17:40.177Z,6.19
2023-03-04T01:20:08.431Z,6.21
2023-03-04T01:22:36.177Z,6.11
2023-03-04T01:25:03.744Z,6.18
2023-03-04T01:27:32.720Z,6.25
2023-03-04T01:29:59.670Z,6.24
2023-03-04T01:32:26.784Z,6.13
2023-03-04T01:34:53.838Z,6.12
2023-03-04T01:37:20.878Z,6.13
2023-03-04T01:39:47.928Z,6.14
2023-03-04T01:42:20.716Z,6.11
2023-03-04T01:44:48.369Z,6.13
2023-03-04T01:47:15.624Z,6.11
2023-03-04T01:49:43.092Z,6.05
2023-03-04T01:52:14.158Z,6.17
2023-03-04T01:54:41.714Z,6.17
2023-03-04T01:57:20.438Z,5.96
2023-03-04T01:59:48.542Z,6.03
2023-03-04T02:02:15.534Z,6.05
2023-03-04T02:04:42.981Z,6.00
2023-03-04T02:07:10.468Z,5.83
2023-03-04T02:09:37.772Z,5.96
2023-03-04T02:12:05.393Z,6.00
2023-03-04T02:14:32.290Z,5.93
2023-03-04T02:16:59.226Z,5.97
2023-03-04T02:19:45.414Z,5.89
2023-03-04T02:22:12.449Z,5.91
2023-03-04T02:24:43.732Z,5.75
2023-03-04T02:27:10.766Z,5.82
2023-03-04T02:29:38.770Z,5.90
2023-03-04T02:32:06.583Z,5.88
2023-03-04T02:34:36.305Z,5.79
2023-03-04T02:37:04.495Z,5.87
2023-03-04T02:39:44.961Z,5.90
2023-03-04T02:42:13.134Z,5.66
2023-03-04T02:44:47.737Z,5.82
2023-03-04T02:47:20.685Z,5.78
2023-03-04T02:49:49.373Z,5.68
2023-03-04T02:52:25.100Z,5.52
2023-03-04T02:54:52.027Z,5.58
2023-03-04T02:57:19.246Z,5.60
2023-03-04T02:59:51.738Z,5.62
2023-03-04T03:02:22.202Z,5.38
2023-03-04T03:04:49.173Z,5.41
2023-03-04T03:07:18.567Z,5.40
2023-03-04T03:09:45.538Z,5.57
2023-03-04T03:12:12.409Z,5.73
2023-03-04T03:14:39.662Z,5.70
2023-03-04T03:17:09.297Z,5.72
2023-03-04T03:19:36.268Z,5.78
2023-03-04T03:22:06.327Z,5.87
2023-03-04T03:24:33.581Z,5.74
2023-03-04T03:27:00.535Z,5.69
2023-03-04T03:29:27.680Z,5.84
2023-03-04T03:31:54.708Z,5.84
2023-03-04T03:34:21.844Z,5.86
2023-03-04T03:36:49.733Z,5.86
2023-03-04T03:39:16.980Z,5.85
2023-03-04T03:41:43.948Z,5.78
2023-03-04T03:44:10.941Z,5.85
2023-03-04T03:46:38.090Z,5.79
2023-03-04T03:49:05.068Z,5.71
2023-03-04T03:51:32.059Z,5.69
2023-03-04T03:53:58.979Z,5.76
2023-03-04T03:56:25.892Z,5.67
2023-03-04T03:58:52.845Z,5.62
2023-03-04T04:01:19.788Z,5.62
2023-03-04T04:03:46.778Z,5.64
2023-03-04T04:06:13.938Z,5.64
2023-03-04T04:08:40.938Z,5.64
2023-03-04T04:11:10.520Z,5.55
2023-03-04T04:13:39.273Z,5.52
2023-03-04T04:16:07.008Z,5.45
2023-03-04T04:18:33.979Z,5.64
2023-03-04T04:21:01.013Z,5.32
2023-03-04T04:23:28.110Z,5.55
2023-03-04T04:25:56.053Z,5.57
2023-03-04T04:28:23.561Z,5.57
2023-03-04T04:30:51.067Z,5.57
2023-03-04T04:33:18.129Z,5.54
2023-03-04T04:35:45.107Z,5.49
2023-03-04T04:38:12.083Z,5.50
2023-03-04T04:40:39.020Z,5.54
2023-03-04T04:43:06.060Z,5.44
2023-03-04T04:45:33.027Z,5.53
2023-03-04T04:48:00.371Z,5.43
2023-03-04T04:50:27.623Z,5.59
2023-03-04T04:52:54.587Z,5.44
2023-03-04T04:55:21.996Z,5.55
2023-03-04T04:57:48.927Z,5.61
2023-03-04T05:00:16.370Z,5.67
2023-03-04T05:02:43.536Z,5.69
2023-03-04T05:05:10.726Z,5.58
2023-03-04T05:07:37.767Z,5.51
2023-03-04T05:10:05.531Z,5.52
2023-03-04T05:12:32.609Z,5.65
2023-03-04T05:14:59.624Z,5.72
2023-03-04T05:17:26.520Z,5.70
2023-03-04T05:19:53.562Z,5.71
2023-03-04T05:22:20.471Z,5.74
2023-03-04T05:24:47.372Z,5.71
2023-03-04T05:27:14.262Z,5.79
2023-03-04T05:29:44.204Z,5.77
2023-03-04T05:32:11.439Z,5.67
2023-03-04T05:34:38.409Z,5.77
2023-03-04T05:37:05.619Z,5.84
2023-03-04T05:39:32.741Z,5.92
2023-03-04T05:41:59.556Z,5.94
2023-03-04T05:44:26.473Z,6.00
2023-03-04T05:46:53.592Z,6.10
2023-03-04T05:49:20.557Z,6.13
2023-03-04T05:51:47.683Z,6.18
2023-03-04T05:54:15.146Z,6.33
2023-03-04T05:56:42.415Z,6.21
2023-03-04T05:59:09.365Z,6.04
2023-03-04T06:01:36.430Z,6.24
2023-03-04T06:04:03.531Z,6.33
2023-03-04T06:06:30.676Z,6.43
2023-03-04T06:08:57.619Z,6.39
2023-03-04T06:11:24.558Z,6.46
2023-03-04T06:13:51.520Z,6.56
2023-03-04T06:16:18.458Z,6.51
2023-03-04T06:18:45.470Z,6.61
2023-03-04T06:21:12.450Z,6.61
2023-03-04T06:23:39.585Z,6.63
2023-03-04T06:26:09.450Z,6.61
2023-03-04T06:28:36.384Z,6.43
2023-03-04T06:31:03.893Z,6.38
2023-03-04T06:33:30.782Z,6.58
2023-03-04T06:35:57.921Z,6.55
2023-03-04T06:38:25.916Z,6.68
2023-03-04T06:40:55.967Z,6.86
2023-03-04T06:43:24.037Z,7.06
2023-03-04T06:45:51.210Z,7.25
2023-03-04T06:48:18.151Z,7.10
2023-03-04T06:50:45.134Z,7.26
2023-03-04T06:53:12.049Z,7.33
2023-03-04T06:55:39.124Z,7.36
2023-03-04T06:58:06.193Z,7.65
2023-03-04T07:00:33.348Z,7.48
2023-03-04T07:03:01.221Z,7.62
2023-03-04T07:05:28.643Z,7.62
2023-03-04T07:07:56.879Z,7.71
2023-03-04T07:10:26.107Z,7.53
2023-03-04T07:12:53.109Z,7.61
2023-03-04T07:15:20.045Z,7.68
2023-03-04T07:17:47.467Z,7.60
2023-03-04T07:20:14.556Z,7.58
2023-03-04T07:22:41.571Z,7.48
2023-03-04T07:25:09.071Z,7.49
2023-03-04T07:27:36.413Z,7.54
2023-03-04T07:30:03.795Z,7.61
2023-03-04T07:32:34.532Z,7.54
2023-03-04T07:35:02.651Z,7.71
2023-03-04T07:37:30.748Z,7.62
2023-03-04T07:39:57.737Z,7.78
2023-03-04T07:42:24.704Z,7.57
2023-03-04T07:45:00.230Z,7.50
2023-03-04T07:47:27.938Z,7.54
2023-03-04T07:49:56.475Z,7.77
2023-03-04T07:52:23.514Z,7.66
2023-03-04T07:54:50.615Z,7.58
2023-03-04T07:57:17.623Z,7.66
2023-03-04T07:59:44.555Z,7.59
2023-03-04T08:02:11.584Z,7.65
2023-03-04T08:04:38.929Z,7.59
2023-03-04T08:07:05.847Z,7.88
2023-03-04T08:09:32.749Z,8.10
2023-03-04T08:11:59.894Z,8.15
2023-03-04T08:14:26.902Z,8.13
2023-03-04T08:16:53.819Z,8.33
2023-03-04T08:19:20.858Z,8.51
2023-03-04T08:21:47.954Z,8.48
2023-03-04T08:24:16.195Z,8.67
2023-03-04T08:26:46.534Z,8.69
2023-03-04T08:29:17.481Z,8.87
2023-03-04T08:31:48.693Z,8.94
2023-03-04T08:34:17.721Z,9.11
2023-03-04T08:36:45.407Z,9.15
2023-03-04T08:39:15.647Z,9.23
2023-03-04T08:41:42.674Z,9.31
2023-03-04T08:44:10.613Z,9.31
2023-03-04T08:46:39.584Z,9.39
2023-03-04T08:49:07.325Z,9.13
2023-03-04T08:51:36.002Z,9.22
2023-03-04T08:54:04.204Z,9.34
2023-03-04T08:56:31.423Z,9.46
2023-03-04T08:58:58.969Z,9.58
2023-03-04T09:01:26.066Z,9.90
2023-03-04T09:03:53.206Z,10.05
2023-03-04T09:06:20.482Z,9.78
2023-03-04T09:12:09.141Z,8.96
2023-03-04T09:14:36.108Z,8.72
2023-03-04T09:17:05.136Z,8.92
2023-03-04T09:19:32.406Z,8.84
2023-03-04T09:21:59.653Z,9.12
2023-03-04T09:24:29.620Z,9.14
2023-03-04T09:26:57.058Z,9.24
2023-03-04T09:29:24.898Z,9.44
2023-03-04T09:31:51.945Z,9.12
2023-03-04T09:34:19.094Z,9.15
2023-03-04T09:36:46.453Z,9.10
2023-03-04T09:39:13.602Z,9.35
2023-03-04T09:41:49.017Z,9.11
2023-03-04T09:44:36.981Z,9.43
2023-03-04T09:47:11.634Z,9.37
2023-03-04T09:49:45.419Z,9.20
2023-03-04T09:52:21.370Z,9.24
2023-03-04T09:55:07.093Z,9.50
2023-03-04T09:57:46.063Z,9.65
2023-03-04T10:00:20.453Z,9.74
2023-03-04T10:03:04.950Z,10.06
2023-03-04T10:05:38.292Z,10.31
2023-03-04T10:08:24.812Z,10.32
2023-03-04T10:10:54.564Z,9.92
2023-03-04T10:13:40.270Z,10.07
2023-03-04T10:19:55.022Z,10.09
2023-03-04T10:22:32.795Z,10.14
2023-03-04T10:25:11.056Z,9.97
2023-03-04T10:27:38.228Z,10.21
2023-03-04T10:30:18.842Z,10.36
2023-03-04T10:32:48.383Z,10.38
2023-03-04T10:35:15.692Z,10.59
2023-03-04T10:37:49.512Z,10.73
2023-03-04T10:40:25.947Z,10.88
2023-03-04T10:42:54.642Z,10.84
2023-03-04T10:45:24.908Z,10.73
2023-03-04T10:47:53.994Z,10.38
2023-03-04T10:50:27.220Z,10.41
2023-03-04T10:52:56.449Z,10.21
2023-03-04T10:55:30.203Z,10.48
2023-03-04T10:58:04.449Z,10.01
2023-03-04T11:00:36.959Z,10.35
2023-03-04T11:03:22.457Z,10.39
2023-03-04T11:05:50.741Z,10.66
2023-03-04T11:08:19.957Z,10.59
2023-03-04T11:10:48.043Z,10.28
2023-03-04T11:13:22.595Z,10.33
2023-03-04T11:16:02.912Z,10.33
2023-03-04T11:18:46.827Z,10.65
2023-03-04T11:21:23.120Z,10.60
2023-03-04T11:24:01.092Z,10.65
2023-03-04T11:26:46.818Z,10.63
2023-03-04T11:29:16.940Z,10.51
2023-03-04T11:31:57.013Z,10.31
2023-03-04T11:34:53.823Z,10.18
2023-03-04T11:37:34.007Z,10.11
2023-03-04T11:40:16.355Z,10.01
2023-03-04T11:42:49.688Z,9.96
2023-03-04T11:45:37.232Z,9.91
2023-03-04T11:48:18.361Z,10.16
2023-03-04T11:51:05.789Z,10.31
2023-03-04T11:53:59.175Z,10.37
2023-03-04T11:56:37.995Z,10.29
2023-03-04T11:59:39.066Z,10.36
2023-03-04T12:02:16.426Z,10.41
2023-03-04T12:04:43.570Z,10.47
2023-03-04T12:07:43.692Z,10.51
2023-03-04T12:10:19.584Z,10.63
2023-03-04T12:13:07.769Z,10.74
2023-03-04T12:15:46.928Z,10.74
2023-03-04T12:18:39.356Z,10.78
2023-03-04T12:21:39.551Z,10.85
2023-03-04T12:24:29.964Z,10.61
2023-03-04T12:27:19.259Z,10.65
2023-03-04T12:30:14.090Z,10.79
2023-03-04T12:32:50.117Z,10.64
2023-03-04T12:35:28.708Z,10.81
2023-03-04T12:38:20.830Z,10.97
2023-03-04T12:41:14.081Z,10.79
2023-03-04T12:43:59.311Z,11.03
2023-03-04T12:46:40.996Z,11.03
2023-03-04T12:49:29.256Z,10.95
2023-03-04T12:52:23.153Z,11.04
2023-03-04T12:54:58.280Z,10.85
2023-03-04T12:57:31.627Z,11.01
2023-03-04T13:00:20.452Z,11.08
2023-03-04T13:06:25.832Z,11.05
2023-03-04T13:09:14.034Z,11.00
2023-03-04T13:11:56.038Z,11.24
2023-03-04T13:14:29.766Z,11.28
2023-03-04T13:17:03.388Z,11.18
2023-03-04T13:19:45.881Z,11.40
2023-03-04T13:22:28.300Z,11.29
2023-03-04T13:24:57.344Z,11.27
2023-03-04T13:28:05.920Z,11.29
2023-03-04T13:30:33.021Z,11.41
2023-03-04T13:33:19.167Z,11.48
2023-03-04T13:35:47.356Z,11.51
2023-03-04T13:38:34.978Z,11.50
2023-03-04T13:41:37.420Z,11.53
2023-03-04T13:44:33.191Z,11.48
2023-03-04T13:47:10.484Z,11.38
2023-03-04T13:49:37.631Z,11.32
2023-03-04T13:52:37.377Z,11.27
2023-03-04T13:55:34.324Z,11.28
2023-03-04T13:58:03.345Z,11.34
2023-03-04T14:00:30.514Z,11.20
2023-03-04T14:02:57.570Z,11.09
2023-03-04T14:05:24.526Z,11.21
2023-03-04T14:07:51.537Z,11.01
2023-03-04T14:10:25.244Z,11.06
2023-03-04T14:12:56.098Z,10.86
2023-03-04T14:15:24.675Z,11.09
2023-03-04T14:17:54.760Z,11.17
2023-03-04T14:20:21.812Z,11.20
2023-03-04T14:22:48.938Z,10.93
2023-03-04T14:25:28.200Z,11.02
2023-03-04T14:28:16.875Z,11.00
2023-03-04T14:30:52.325Z,10.83
2023-03-04T14:33:26.050Z,11.00
2023-03-04T14:36:00.669Z,10.95
2023-03-04T14:38:34.023Z,10.84
2023-03-04T14:41:06.891Z,10.73
2023-03-04T14:44:09.540Z,10.79
2023-03-04T14:47:00.676Z,10.78
2023-03-04T14:49:34.300Z,10.91
2023-03-04T14:52:01.406Z,10.58
2023-03-04T14:54:43.906Z,10.56
2023-03-04T14:57:32.392Z,10.63
2023-03-04T15:00:26.042Z,10.75
2023-03-04T15:02:59.318Z,10.61
2023-03-04T15:05:33.671Z,10.61
2023-03-04T15:08:37.251Z,10.53
2023-03-04T15:11:06.488Z,10.26
2023-03-04T15:13:42.296Z,10.35
2023-03-04T15:16:11.152Z,10.40
2023-03-04T15:18:38.863Z,10.47
2023-03-04T15:21:30.828Z,10.54
2023-03-04T15:23:57.912Z,10.43
2023-03-04T15:26:24.936Z,10.22
2023-03-04T15:28:51.920Z,10.42
2023-03-04T15:31:25.963Z,10.29
2023-03-04T15:33:53.715Z,10.24
2023-03-04T15:36:24.196Z,10.40
2023-03-04T15:38:53.265Z,10.36
2023-03-04T15:41:27.517Z,10.38
2023-03-04T15:43:55.356Z,10.42
2023-03-04T15:46:22.543Z,10.30
2023-03-04T15:48:50.591Z,10.31
2023-03-04T15:51:22.272Z,10.21
2023-03-04T15:53:59.159Z,10.31
2023-03-04T15:56:29.448Z,10.43
2023-03-04T15:58:58.952Z,10.46
2023-03-04T16:01:26.472Z,10.35
2023-03-04T16:03:54.033Z,10.35
2023-03-04T16:06:23.624Z,10.38
2023-03-04T16:08:52.168Z,10.44
2023-03-04T16:11:23.161Z,10.48
2023-03-04T16:13:50.361Z,10.52
2023-03-04T16:16:18.281Z,10.49
2023-03-04T16:18:45.684Z,10.48
2023-03-04T16:21:19.182Z,10.41
2023-03-04T16:23:49.020Z,10.41
2023-03-04T16:26:20.407Z,10.35
2023-03-04T16:28:47.580Z,10.30
2023-03-04T16:31:15.771Z,10.30
2023-03-04T16:33:43.219Z,10.49
2023-03-04T16:36:19.501Z,10.39
2023-03-04T16:38:46.703Z,10.42
2023-03-04T16:41:16.033Z,10.40
2023-03-04T16:43:43.723Z,10.34
2023-03-04T16:46:13.711Z,10.28
2023-03-04T16:48:41.466Z,10.36
2023-03-04T16:51:15.527Z,10.31
2023-03-04T16:53:46.586Z,10.30
2023-03-04T16:56:18.552Z,10.32
2023-03-04T16:58:46.091Z,10.28
2023-03-04T17:01:22.343Z,10.29
2023-03-04T17:03:49.376Z,10.20
2023-03-04T17:06:16.661Z,10.25
2023-03-04T17:08:43.706Z,10.22
2023-03-04T17:11:17.982Z,10.28
2023-03-04T17:13:45.691Z,10.13
2023-03-04T17:16:13.738Z,10.22
2023-03-04T17:18:41.449Z,10.17
2023-03-04T17:21:16.103Z,10.05
2023-03-04T17:23:47.396Z,10.04
2023-03-04T17:26:15.642Z,10.07
2023-03-04T17:28:43.074Z,9.88
2023-03-04T17:31:12.197Z,9.95
2023-03-04T17:33:39.688Z,10.05
2023-03-04T17:36:09.943Z,9.95
2023-03-04T17:38:38.594Z,9.98
2023-03-04T17:41:07.930Z,10.02
2023-03-04T17:43:35.570Z,10.00
2023-03-04T17:46:12.344Z,9.97
2023-03-04T17:48:39.701Z,10.00
2023-03-04T17:51:06.823Z,9.99
2023-03-04T17:53:33.858Z,9.96
2023-03-04T17:56:03.703Z,9.91
2023-03-04T17:58:32.089Z,9.99
2023-03-04T18:01:25.813Z,9.99
2023-03-04T18:03:53.540Z,9.93
2023-03-04T18:06:22.854Z,9.88
2023-03-04T18:08:50.215Z,9.78
2023-03-04T18:11:17.257Z,9.80
2023-03-04T18:13:44.885Z,9.87
2023-03-04T18:16:15.856Z,9.69
2023-03-04T18:18:44.308Z,9.59
2023-03-04T18:21:13.617Z,9.60
2023-03-04T18:23:40.713Z,9.63
2023-03-04T18:26:08.112Z,9.57
2023-03-04T18:28:35.264Z,9.50
2023-03-04T18:31:02.514Z,9.43
2023-03-04T18:33:30.867Z,9.34
2023-03-04T18:35:59.870Z,9.36
2023-03-04T18:38:27.727Z,9.33
2023-03-04T18:41:03.312Z,9.34
2023-03-04T18:43:30.417Z,9.34
2023-03-04T18:46:03.544Z,9.22
2023-03-04T18:48:33.803Z,9.43
2023-03-04T18:51:00.707Z,9.62
2023-03-04T18:53:31.754Z,9.57
2023-03-04T18:56:04.008Z,9.61
2023-03-04T18:58:33.529Z,9.60
2023-03-04T19:01:04.917Z,9.66
2023-03-04T19:03:34.673Z,9.47
2023-03-04T19:06:01.762Z,9.52
2023-03-04T19:08:28.962Z,9.63
2023-03-04T19:10:56.470Z,9.53
2023-03-04T19:13:23.447Z,9.64
2023-03-04T19:15:51.165Z,9.65
2023-03-04T19:18:18.489Z,9.68
2023-03-04T19:20:45.460Z,9.59
2023-03-04T19:23:13.594Z,9.74
2023-03-04T19:25:41.110Z,9.66
2023-03-04T19:28:08.679Z,9.57
2023-03-04T19:30:41.890Z,9.65
2023-03-04T19:33:10.399Z,9.65
2023-03-04T19:35:42.526Z,9.56
2023-03-04T19:38:09.653Z,9.52
2023-03-04T19:40:46.796Z,9.56
2023-03-04T19:43:14.911Z,9.57
2023-03-04T19:45:42.114Z,9.55
2023-03-04T19:48:09.148Z,9.58
2023-03-04T19:50:36.132Z,9.58
2023-03-04T19:53:03.119Z,9.33
2023-03-04T19:55:30.083Z,9.38
2023-03-04T19:57:57.016Z,9.38
2023-03-04T20:00:24.421Z,9.46
2023-03-04T20:02:52.040Z,9.43
2023-03-04T20:05:19.125Z,9.44
2023-03-04T20:07:46.033Z,9.47
2023-03-04T20:10:14.451Z,9.40
2023-03-04T20:12:41.468Z,9.28
2023-03-04T20:15:09.124Z,9.28
2023-03-04T20:17:36.566Z,9.29
2023-03-04T20:20:03.762Z,9.37
2023-03-04T20:22:31.458Z,9.41
2023-03-04T20:24:58.934Z,9.32
2023-03-04T20:27:25.944Z,9.44
2023-03-04T20:29:53.556Z,9.35
2023-03-04T20:32:20.806Z,9.20
2023-03-04T20:34:49.616Z,9.05
2023-03-04T20:37:16.656Z,9.15
2023-03-04T20:39:43.694Z,9.10
2023-03-04T20:42:10.660Z,9.13
2023-03-04T20:44:37.490Z,9.09
2023-03-04T20:47:04.709Z,9.08
2023-03-04T20:49:31.833Z,9.13
2023-03-04T20:52:06.497Z,9.13
2023-03-04T20:54:35.057Z,9.10
2023-03-04T20:57:02.479Z,8.91
2023-03-04T20:59:30.087Z,8.79
2023-03-04T21:01:57.153Z,8.60
2023-03-04T21:04:24.142Z,8.45
2023-03-04T21:06:52.572Z,8.28
2023-03-04T21:09:21.895Z,8.18
2023-03-04T21:11:51.134Z,8.39
2023-03-04T21:14:24.377Z,8.42
2023-03-04T21:16:56.344Z,8.42
2023-03-04T21:19:29.833Z,8.46
2023-03-04T21:21:58.123Z,8.48
2023-03-04T21:24:28.632Z,8.51
2023-03-04T21:26:55.869Z,8.50
2023-03-04T21:29:25.282Z,8.40
2023-03-04T21:32:21.142Z,8.31
2023-03-04T21:34:52.385Z,8.34
2023-03-04T21:37:20.937Z,8.51
2023-03-04T21:39:48.212Z,8.38
2023-03-04T21:42:15.224Z,8.34
2023-03-04T21:44:50.746Z,8.26
2023-03-04T21:47:21.968Z,8.18
2023-03-04T21:49:49.359Z,8.01
2023-03-04T21:52:21.172Z,7.89
2023-03-04T21:54:48.313Z,7.84
2023-03-04T21:57:15.324Z,7.70
2023-03-04T21:59:42.496Z,7.63
2023-03-04T22:02:23.149Z,7.63
2023-03-04T22:04:50.216Z,7.59
2023-03-04T22:07:17.376Z,7.56
2023-03-04T22:09:44.537Z,7.48
2023-03-04T22:12:11.533Z,7.46
2023-03-04T22:14:38.516Z,7.50
2023-03-04T22:17:08.642Z,7.51
2023-03-04T22:19:35.754Z,7.32
2023-03-04T22:22:02.879Z,7.44
2023-03-04T22:24:29.894Z,7.43
2023-03-04T22:26:57.806Z,7.55
2023-03-04T22:29:24.809Z,7.53
2023-03-04T22:31:51.909Z,7.42
2023-03-04T22:34:19.043Z,7.45
2023-03-04T22:36:47.204Z,7.45
2023-03-04T22:39:19.386Z,7.19
2023-03-04T22:41:46.514Z,7.13
2023-03-04T22:44:14.156Z,7.14
2023-03-04T22:46:41.247Z,7.06
2023-03-04T22:49:10.449Z,7.19
2023-03-04T22:51:41.520Z,7.24
2023-03-04T22:54:11.000Z,7.26
2023-03-04T22:56:39.226Z,7.30
2023-03-04T22:59:06.603Z,7.16
2023-03-04T23:01:33.724Z,7.27
2023-03-04T23:04:01.536Z,7.15
2023-03-04T23:06:30.461Z,7.12
2023-03-04T23:08:58.970Z,6.92
2023-03-04T23:11:29.082Z,6.58
2023-03-04T23:13:56.949Z,6.42
2023-03-04T23:16:25.229Z,6.34
2023-03-04T23:18:53.383Z,6.34
2023-03-04T23:21:24.046Z,6.07
2023-03-04T23:23:52.957Z,5.97
2023-03-04T23:26:25.706Z,5.83
2023-03-04T23:28:55.723Z,5.80
2023-03-04T23:31:22.926Z,5.64
2023-03-04T23:33:49.930Z,5.63
2023-03-04T23:36:18.953Z,5.51
2023-03-04T23:38:48.134Z,5.38
2023-03-04T23:41:17.837Z,5.37
2023-03-04T23:43:45.309Z,5.34
2023-03-04T23:46:12.877Z,5.36
2023-03-04T23:48:43.281Z,5.45
2023-03-04T23:51:10.722Z,5.47
2023-03-04T23:53:39.238Z,5.48
2023-03-04T23:56:14.774Z,5.46
2023-03-04T23:58:42.798Z,5.33
